Time;durP1;ratioP1;P1;durP2;ratioP2;P2;SDS_P1;SDS_P2;PMS_P1;PMS_P2;Temp;Humidity;BMP_temperature;BMP_pressure;BME280_temperature;BME280_humidity;BME280_pressure;Samples;Min_cycle;Max_cycle;Signal;HPM_P1;HPM_P2
2023/12/05 00:02:22;;;;;;;10.27;7.57;;;;;;;4.98;83.69;100287.22;5071423;28;20623;-72
2023/12/05 00:04:48;;;;;;;8.73;7.87;;;;;;;4.96;83.91;100284.75;5070994;28;20193;-72
2023/12/05 00:07:15;;;;;;;7.40;6.80;;;;;;;5.12;84.16;100282.38;5071422;28;20196;-71
2023/12/05 00:09:42;;;;;;;8.33;6.90;;;;;;;5.00;84.23;100283.50;5071322;28;20277;-71
2023/12/05 00:12:09;;;;;;;6.90;6.40;;;;;;;5.15;84.48;100286.53;5071348;28;20192;-72
2023/12/05 00:14:36;;;;;;;7.37;6.83;;;;;;;5.12;84.59;100294.69;5071216;28;20283;-70
2023/12/05 00:17:02;;;;;;;7.03;6.53;;;;;;;5.20;84.40;100295.63;5071441;28;20265;-71
2023/12/05 00:19:30;;;;;;;7.20;6.10;;;;;;;5.21;83.90;100305.22;5071220;28;20252;-72
2023/12/05 00:21:57;;;;;;;7.20;6.60;;;;;;;5.20;83.95;100306.16;5071207;28;20256;-73
2023/12/05 00:24:24;;;;;;;7.63;5.97;;;;;;;5.29;84.11;100302.72;5070840;28;20228;-72
2023/12/05 00:26:51;;;;;;;6.43;5.90;;;;;;;5.34;83.87;100308.38;5070800;28;20277;-73
2023/12/05 00:29:17;;;;;;;6.73;6.20;;;;;;;5.39;82.83;100305.28;5070682;28;20253;-72
2023/12/05 00:31:44;;;;;;;7.23;5.97;;;;;;;5.42;82.90;100303.22;5070702;28;20685;-72
2023/12/05 00:34:11;;;;;;;6.83;6.10;;;;;;;5.42;82.96;100305.84;5071199;28;20196;-73
2023/12/05 00:36:39;;;;;;;8.57;5.90;;;;;;;5.45;82.90;100312.63;5073844;28;20555;-73
2023/12/05 00:39:06;;;;;;;6.47;5.87;;;;;;;5.48;82.57;100302.63;5074395;28;20283;-73
2023/12/05 00:41:32;;;;;;;6.73;6.10;;;;;;;5.52;82.19;100303.19;5074571;28;20219;-72
2023/12/05 00:43:59;;;;;;;8.00;5.77;;;;;;;5.30;82.70;100296.47;5074311;28;20245;-72
2023/12/05 00:46:27;;;;;;;7.43;5.83;;;;;;;5.45;82.95;100297.66;5074268;28;20228;-71
2023/12/05 00:48:53;;;;;;;6.93;6.30;;;;;;;5.43;82.72;100299.59;5074688;28;20198;-72
2023/12/05 00:51:20;;;;;;;7.20;6.63;;;;;;;5.36;82.87;100292.44;5074091;28;20192;-72
2023/12/05 00:53:48;;;;;;;6.63;6.17;;;;;;;5.44;83.16;100290.72;5074479;28;20196;-72
2023/12/05 00:56:17;;;;;;;7.57;6.80;;;;;;;5.42;83.43;100281.31;5073964;28;20544;-72
2023/12/05 00:58:43;;;;;;;7.80;7.03;;;;;;;5.10;84.37;100278.19;5074136;28;20283;-72
2023/12/05 01:01:10;;;;;;;6.67;6.10;;;;;;;5.23;84.51;100276.13;5074142;28;20196;-72
2023/12/05 01:03:37;;;;;;;7.17;6.53;;;;;;;5.01;85.20;100266.75;5074232;28;20249;-72
2023/12/05 01:06:04;;;;;;;7.60;7.00;;;;;;;5.17;85.22;100255.59;5074083;28;20752;-72
2023/12/05 01:08:31;;;;;;;7.93;7.23;;;;;;;5.18;84.46;100252.81;5074065;28;20253;-72
2023/12/05 01:11:00;;;;;;;7.43;6.90;;;;;;;5.23;84.63;100247.16;5073712;28;20721;-72
2023/12/05 01:13:26;;;;;;;6.77;6.10;;;;;;;5.20;84.57;100244.78;5073942;28;20886;-73
2023/12/05 01:15:53;;;;;;;7.80;6.77;;;;;;;5.21;84.90;100246.44;5074246;28;20200;-71
2023/12/05 01:18:20;;;;;;;6.37;5.77;;;;;;;5.34;85.15;100245.16;5074020;28;20192;-71
2023/12/05 01:20:47;;;;;;;7.17;6.57;;;;;;;5.34;84.38;100245.16;5074103;28;20254;-71
2023/12/05 01:23:13;;;;;;;7.27;6.77;;;;;;;5.38;84.56;100233.34;5073550;28;20659;-71
2023/12/05 01:25:40;;;;;;;6.80;6.30;;;;;;;5.43;84.91;100228.47;5073744;28;20238;-70
2023/12/05 01:28:08;;;;;;;6.67;6.23;;;;;;;5.52;84.46;100229.41;5073920;28;20196;-70
2023/12/05 01:30:35;;;;;;;6.70;6.30;;;;;;;5.50;83.74;100232.19;5073141;28;20262;-70
2023/12/05 01:33:02;;;;;;;6.87;6.27;;;;;;;5.52;84.08;100229.41;5073809;28;20192;-70
2023/12/05 01:35:29;;;;;;;6.40;6.00;;;;;;;5.59;83.57;100226.03;5073143;28;20574;-71
2023/12/05 01:37:55;;;;;;;7.40;6.20;;;;;;;5.60;82.63;100232.97;5073227;28;20258;-70
2023/12/05 01:40:22;;;;;;;8.10;6.43;;;;;;;5.53;82.74;100231.91;5073334;28;20722;-71
2023/12/05 01:42:49;;;;;;;7.03;6.33;;;;;;;5.55;83.36;100221.19;5073111;28;20203;-71
2023/12/05 01:45:17;;;;;;;7.30;6.63;;;;;;;5.62;82.60;100225.75;5073469;28;20200;-71
2023/12/05 01:47:44;;;;;;;6.33;5.73;;;;;;;5.72;82.71;100220.44;5072219;28;20202;-69
2023/12/05 01:50:15;;;;;;;6.73;6.27;;;;;;;5.74;82.17;100213.19;5073418;28;20305;-70
2023/12/05 01:52:48;;;;;;;6.37;5.87;;;;;;;5.75;81.36;100207.78;5072944;28;20181;-70
2023/12/05 01:55:16;;;;;;;6.80;6.20;;;;;;;5.69;80.82;100195.19;5073292;28;20189;-71
2023/12/05 01:57:43;;;;;;;6.67;6.20;;;;;;;5.80;81.21;100204.69;5073090;28;20282;-70
2023/12/05 02:00:11;;;;;;;6.83;6.27;;;;;;;5.83;81.02;100206.25;5072915;28;20641;-71
2023/12/05 02:02:40;;;;;;;6.70;6.17;;;;;;;5.83;80.09;100206.25;5072713;28;20256;-72
2023/12/05 02:05:08;;;;;;;6.63;6.17;;;;;;;5.86;79.25;100211.22;5073241;28;20254;-72
2023/12/05 02:07:35;;;;;;;6.63;6.07;;;;;;;5.85;79.97;100210.41;5072748;28;20227;-72
2023/12/05 02:10:03;;;;;;;6.67;6.07;;;;;;;5.86;79.77;100208.56;5072712;28;20610;-72
2023/12/05 02:12:30;;;;;;;5.97;5.57;;;;;;;5.83;79.49;100200.97;5072484;28;20192;-72
2023/12/05 02:14:58;;;;;;;6.00;5.60;;;;;;;5.90;78.81;100204.66;5072587;28;20193;-72
2023/12/05 02:17:32;;;;;;;6.43;5.93;;;;;;;5.93;78.53;100209.66;5072488;28;20237;-72
2023/12/05 02:20:09;;;;;;;5.63;5.23;;;;;;;5.94;78.00;100204.22;5072910;28;20184;-71
2023/12/05 02:22:54;;;;;;;6.60;6.00;;;;;;;5.96;78.21;100196.97;5072597;28;20188;-72
2023/12/05 02:25:32;;;;;;;6.37;5.87;;;;;;;5.86;77.02;100195.38;5072322;28;20233;-71
2023/12/05 02:28:02;;;;;;;6.13;5.67;;;;;;;5.77;77.78;100191.81;5072789;28;20282;-71
2023/12/05 02:30:29;;;;;;;6.50;6.00;;;;;;;5.79;78.18;100195.97;5072555;28;20234;-71
2023/12/05 02:32:55;;;;;;;6.90;6.40;;;;;;;5.79;77.99;100188.06;5072164;28;20659;-71
2023/12/05 02:35:23;;;;;;;6.60;6.00;;;;;;;5.84;78.12;100195.53;5072452;28;20196;-70
2023/12/05 02:37:57;;;;;;;11.33;6.27;;;;;;;5.87;77.63;100191.81;5052062;28;20291;-71
2023/12/05 02:40:28;;;;;;;6.07;5.67;;;;;;;5.77;77.92;100192.63;5052118;28;20192;-71
2023/12/05 02:42:58;;;;;;;6.90;6.40;;;;;;;5.83;77.73;100196.53;5052029;28;20180;-71
2023/12/05 02:45:30;;;;;;;6.57;5.97;;;;;;;5.79;77.93;100195.13;5052273;28;20200;-71
2023/12/05 02:47:59;;;;;;;6.90;6.37;;;;;;;5.77;77.84;100192.63;5052323;28;20269;-71
2023/12/05 02:50:25;;;;;;;7.00;6.10;;;;;;;5.77;76.57;100182.09;5052101;28;20193;-71
2023/12/05 02:52:52;;;;;;;6.53;6.03;;;;;;;5.82;77.77;100189.59;5051776;28;20617;-71
2023/12/05 02:55:19;;;;;;;7.10;6.40;;;;;;;5.88;77.66;100185.53;5051830;28;20188;-71
2023/12/05 02:57:46;;;;;;;7.23;6.73;;;;;;;5.92;77.50;100184.25;5051914;28;20270;-71
2023/12/05 03:00:14;;;;;;;6.87;6.27;;;;;;;5.98;77.56;100181.00;5052115;28;20216;-71
2023/12/05 03:02:42;;;;;;;7.27;6.40;;;;;;;5.99;77.36;100180.03;5051922;28;20201;-71
2023/12/05 03:05:09;;;;;;;6.83;6.23;;;;;;;5.99;77.07;100164.22;5052129;28;20274;-71
2023/12/05 03:07:36;;;;;;;6.67;6.00;;;;;;;6.02;76.34;100175.31;5051432;28;20279;-71
2023/12/05 03:10:04;;;;;;;7.40;6.80;;;;;;;5.94;76.93;100162.03;5051964;28;20200;-70
2023/12/05 03:12:33;;;;;;;7.53;6.93;;;;;;;5.82;76.76;100163.25;5051807;28;20258;-71
2023/12/05 03:15:00;;;;;;;7.03;6.43;;;;;;;5.77;77.26;100158.38;5051811;28;20196;-71
2023/12/05 03:17:26;;;;;;;7.90;7.17;;;;;;;5.66;77.80;100158.59;5051077;28;20663;-71
2023/12/05 03:19:54;;;;;;;8.17;7.57;;;;;;;5.62;78.71;100146.69;5052035;28;20193;-71
2023/12/05 03:22:21;;;;;;;7.80;7.20;;;;;;;5.60;78.20;100161.00;5051724;28;20192;-71
2023/12/05 03:24:50;;;;;;;7.63;6.70;;;;;;;5.56;78.08;100152.53;5051608;28;20273;-69
2023/12/05 03:27:16;;;;;;;7.53;6.93;;;;;;;5.57;79.46;100158.66;5051424;28;20231;-69
2023/12/05 03:29:43;;;;;;;9.43;7.27;;;;;;;5.67;79.09;100154.16;5051471;28;20232;-69
2023/12/05 03:32:10;;;;;;;9.43;7.70;;;;;;;5.77;79.16;100165.47;5051368;28;20656;-70
2023/12/05 03:34:37;;;;;;;7.80;7.20;;;;;;;5.82;79.17;100160.59;5051400;28;20189;-70
2023/12/05 03:37:05;;;;;;;8.13;7.33;;;;;;;5.86;78.38;100169.03;5065323;28;20204;-70
2023/12/05 03:39:32;;;;;;;8.60;7.87;;;;;;;5.92;78.47;100168.44;5071426;28;20660;-72
2023/12/05 03:41:58;;;;;;;8.77;7.97;;;;;;;5.92;77.66;100168.44;5071134;28;20201;-71
2023/12/05 03:44:24;;;;;;;9.43;7.53;;;;;;;5.79;78.50;100169.59;5071380;28;20224;-71
2023/12/05 03:46:51;;;;;;;9.87;8.83;;;;;;;5.82;78.27;100168.50;5071103;28;20718;-71
2023/12/05 03:49:18;;;;;;;11.10;8.70;;;;;;;5.84;78.20;100171.00;5071587;28;20275;-70
2023/12/05 03:51:44;;;;;;;9.63;8.10;;;;;;;5.88;78.77;100172.38;5071206;28;20257;-71
2023/12/05 03:54:13;;;;;;;9.53;8.73;;;;;;;5.85;78.99;100167.38;5071300;28;20191;-72
2023/12/05 03:56:39;;;;;;;10.30;9.20;;;;;;;5.92;78.74;100163.97;5071260;28;20192;-72
2023/12/05 03:59:06;;;;;;;10.47;9.47;;;;;;;5.99;78.66;100161.56;5071385;28;20192;-72
2023/12/05 04:01:33;;;;;;;16.37;9.00;;;;;;;5.99;77.83;100172.13;5071227;28;20284;-72
2023/12/05 04:03:59;;;;;;;12.23;9.27;;;;;;;5.82;78.99;100163.25;5071050;28;20196;-73
2023/12/05 04:06:26;;;;;;;11.23;9.83;;;;;;;5.81;79.69;100163.38;5071414;28;20367;-72
2023/12/05 04:08:53;;;;;;;11.90;10.07;;;;;;;5.77;79.67;100152.28;5070975;28;20741;-72
2023/12/05 04:11:30;;;;;;;13.57;9.87;;;;;;;5.88;79.39;100167.09;5073964;28;20195;-72
2023/12/05 04:13:57;;;;;;;10.27;9.30;;;;;;;5.85;79.91;100162.09;5074672;28;20271;-71
2023/12/05 04:16:24;;;;;;;12.90;10.03;;;;;;;5.90;80.35;100163.31;5074948;28;20652;-71
2023/12/05 04:18:51;;;;;;;10.73;9.80;;;;;;;5.90;79.36;100154.56;5074805;28;20195;-70
2023/12/05 04:21:18;;;;;;;13.80;10.13;;;;;;;5.96;79.43;100160.06;5074714;28;20200;-70
2023/12/05 04:23:45;;;;;;;14.17;9.90;;;;;;;5.98;79.44;100154.66;5074777;28;20250;-69
2023/12/05 04:26:15;;;;;;;14.57;9.60;;;;;;;5.97;78.72;100151.22;5074445;28;20256;-69
2023/12/05 04:28:43;;;;;;;10.77;9.67;;;;;;;5.93;79.01;100152.47;5074113;28;20742;-69
2023/12/05 04:31:11;;;;;;;15.37;10.37;;;;;;;5.85;79.91;100138.38;5074688;28;20232;-69
2023/12/05 04:33:39;;;;;;;16.77;9.93;;;;;;;5.90;80.70;100152.78;5074363;28;20661;-69
2023/12/05 04:36:07;;;;;;;12.70;9.50;;;;;;;5.91;80.23;100153.63;5074283;28;20195;-69
2023/12/05 04:38:36;;;;;;;13.50;9.90;;;;;;;5.90;80.14;100144.88;5074385;28;20200;-71
2023/12/05 04:41:03;;;;;;;12.93;10.33;;;;;;;5.85;80.03;100146.28;5074404;28;20196;-71
2023/12/05 04:43:30;;;;;;;12.77;10.83;;;;;;;5.76;80.84;100137.47;5073754;28;20193;-71
2023/12/05 04:45:58;;;;;;;17.17;10.53;;;;;;;5.81;80.97;100152.84;5074170;28;20732;-70
2023/12/05 04:48:25;;;;;;;10.03;9.03;;;;;;;5.76;80.65;100142.72;5073687;28;20265;-70
2023/12/05 04:50:52;;;;;;;11.63;9.80;;;;;;;5.62;80.77;100140.59;5074021;28;20659;-70
2023/12/05 04:53:19;;;;;;;10.17;9.13;;;;;;;5.58;81.20;100145.34;5073730;28;20241;-71
2023/12/05 04:55:45;;;;;;;10.53;9.53;;;;;;;5.58;81.75;100144.50;5074083;28;20249;-70
2023/12/05 04:58:12;;;;;;;10.63;8.83;;;;;;;5.49;81.48;100151.50;5073528;28;20737;-70
2023/12/05 05:00:39;;;;;;;10.30;8.07;;;;;;;5.46;81.43;100146.53;5073788;28;20200;-70
2023/12/05 05:03:07;;;;;;;16.20;9.80;;;;;;;5.37;81.91;100149.22;5073358;28;20652;-70
2023/12/05 05:05:33;;;;;;;13.77;10.80;;;;;;;5.33;82.73;100140.78;5073598;28;20663;-70
2023/12/05 05:08:00;;;;;;;19.63;10.67;;;;;;;5.32;82.51;100139.09;5073417;28;20277;-70
2023/12/05 05:10:27;;;;;;;18.90;10.47;;;;;;;5.36;83.08;100124.66;5073361;28;20196;-70
2023/12/05 05:12:54;;;;;;;13.77;9.43;;;;;;;5.35;83.02;100115.09;5073365;28;20197;-70
2023/12/05 05:15:21;;;;;;;27.53;11.83;;;;;;;5.47;82.84;100120.97;5073763;28;20644;-70
2023/12/05 05:17:47;;;;;;;23.73;11.53;;;;;;;5.54;83.92;100124.69;5073471;28;20204;-69
2023/12/05 05:20:16;;;;;;;13.30;10.80;;;;;;;5.55;82.48;100124.56;5079426;28;20824;-70
2023/12/05 05:22:42;;;;;;;13.77;12.00;;;;;;;5.51;82.62;100123.19;5073704;28;20184;-71
2023/12/05 05:25:08;;;;;;;16.50;11.77;;;;;;;5.48;83.16;100117.41;5061697;28;20197;-72
2023/12/05 05:27:35;;;;;;;16.70;12.50;;;;;;;5.54;83.39;100111.53;5073619;28;20273;-75
2023/12/05 05:30:02;;;;;;;27.63;12.47;;;;;;;5.50;83.77;100116.28;5072540;28;20220;-74
2023/12/05 05:32:28;;;;;;;24.97;12.67;;;;;;;5.50;84.04;100115.44;5072817;28;20192;-77
2023/12/05 05:34:55;;;;;;;18.20;11.47;;;;;;;5.55;83.54;100106.09;5070773;28;20269;-74
2023/12/05 05:37:23;;;;;;;17.00;11.57;;;;;;;5.51;83.64;100102.09;5073623;28;20196;-75
2023/12/05 05:39:50;;;;;;;22.87;13.13;;;;;;;5.48;83.75;100097.13;5069328;28;20192;-76
2023/12/05 05:42:16;;;;;;;18.63;12.80;;;;;;;5.49;84.76;100090.91;5074454;28;20192;-75
2023/12/05 05:44:44;;;;;;;18.57;10.97;;;;;;;5.61;84.90;100091.50;5071832;28;20189;-75
2023/12/05 05:47:11;;;;;;;14.83;11.10;;;;;;;5.71;84.32;100093.09;5072089;28;20265;-76
2023/12/05 05:49:38;;;;;;;23.47;11.97;;;;;;;5.75;83.96;100093.59;5071321;28;20192;-75
2023/12/05 05:52:05;;;;;;;58.60;15.47;;;;;;;5.75;84.09;100097.09;5061289;28;20191;-75
2023/12/05 05:54:34;;;;;;;25.73;12.57;;;;;;;5.69;84.33;100086.31;5068054;28;20329;-76
2023/12/05 05:57:00;;;;;;;25.67;12.83;;;;;;;5.73;84.60;100077.94;5061904;28;20687;-74
2023/12/05 05:59:27;;;;;;;27.17;14.67;;;;;;;5.81;83.65;100087.78;5063237;28;20268;-75
2023/12/05 06:01:56;;;;;;;18.93;12.57;;;;;;;5.79;84.29;100084.41;5061127;28;20224;-75
2023/12/05 06:04:23;;;;;;;17.60;11.60;;;;;;;5.91;84.15;100093.78;5061245;28;20669;-73
2023/12/05 06:06:50;;;;;;;23.17;13.67;;;;;;;5.91;82.96;100098.25;5062568;28;20246;-75
2023/12/05 06:09:17;;;;;;;15.83;11.97;;;;;;;5.76;83.37;100084.75;5069589;28;20196;-75
2023/12/05 06:11:45;;;;;;;33.90;14.70;;;;;;;5.89;84.13;100094.91;5070635;28;20233;-74
2023/12/05 06:14:11;;;;;;;48.03;14.07;;;;;;;5.96;83.97;100091.50;5072891;28;20229;-74
2023/12/05 06:16:38;;;;;;;25.77;11.97;;;;;;;6.00;83.47;100089.44;5072168;28;20197;-76
2023/12/05 06:19:05;;;;;;;25.90;11.70;;;;;;;6.04;83.73;100088.94;5072591;28;20643;-74
2023/12/05 06:21:31;;;;;;;28.40;13.00;;;;;;;6.14;83.43;100089.72;5072929;28;20197;-73
2023/12/05 06:23:58;;;;;;;35.23;12.27;;;;;;;6.24;83.23;100100.97;5072078;28;20582;-73
2023/12/05 06:26:25;;;;;;;24.77;13.63;;;;;;;6.33;82.73;100099.25;5072508;28;20242;-73
2023/12/05 06:28:53;;;;;;;21.77;14.23;;;;;;;6.33;82.46;100104.50;5072553;28;20218;-74
2023/12/05 06:31:19;;;;;;;18.03;12.87;;;;;;;6.24;82.33;100108.88;5073926;28;20297;-73
2023/12/05 06:33:46;;;;;;;27.20;13.80;;;;;;;6.08;82.77;100115.88;5091666;28;20240;-73
2023/12/05 06:36:13;;;;;;;22.13;14.17;;;;;;;6.04;83.83;100112.69;5085186;28;20565;-69
2023/12/05 06:38:40;;;;;;;28.43;14.27;;;;;;;6.09;84.07;100113.06;5089010;28;20674;-73
2023/12/05 06:41:08;;;;;;;23.93;13.80;;;;;;;6.14;83.88;100125.78;5092303;28;20193;-72
2023/12/05 06:43:35;;;;;;;38.97;13.83;;;;;;;6.24;84.01;100131.81;5092540;28;20252;-72
2023/12/05 06:46:03;;;;;;;43.93;14.37;;;;;;;6.33;84.50;100121.16;5092176;28;20191;-72
2023/12/05 06:48:30;;;;;;;31.57;14.33;;;;;;;6.44;83.07;100112.16;5092146;28;20223;-71
2023/12/05 06:50:57;;;;;;;20.17;14.77;;;;;;;6.42;83.06;100111.50;5091418;28;20615;-73
2023/12/05 06:53:23;;;;;;;26.27;15.53;;;;;;;6.38;82.26;100115.44;5074702;28;20192;-72
2023/12/05 06:55:50;;;;;;;41.00;19.03;;;;;;;6.24;82.56;100113.34;5069055;28;20199;-72
2023/12/05 06:58:18;;;;;;;27.07;14.50;;;;;;;6.07;82.50;100119.47;5073063;28;20194;-72
2023/12/05 07:00:45;;;;;;;27.43;14.87;;;;;;;6.00;82.94;100108.69;5071604;28;20237;-73
2023/12/05 07:03:13;;;;;;;24.47;13.43;;;;;;;6.03;83.34;100118.09;5078299;28;20694;-73
2023/12/05 07:05:40;;;;;;;13.47;12.00;;;;;;;5.95;84.06;100115.44;5068708;28;20195;-74
2023/12/05 07:08:07;;;;;;;23.33;12.37;;;;;;;5.89;84.39;100106.31;5071151;28;20212;-73
2023/12/05 07:10:34;;;;;;;16.53;12.30;;;;;;;5.88;84.24;100114.38;5072067;28;20664;-72
2023/12/05 07:13:02;;;;;;;19.07;13.43;;;;;;;5.86;85.06;100113.66;5071034;28;20200;-73
2023/12/05 07:15:29;;;;;;;24.20;14.77;;;;;;;5.79;84.66;100110.78;5069812;28;20204;-74
2023/12/05 07:17:56;;;;;;;39.53;13.87;;;;;;;5.60;84.70;100110.94;5068445;28;20206;-73
2023/12/05 07:20:24;;;;;;;26.13;15.93;;;;;;;5.49;86.28;100112.00;5070521;28;20250;-73
2023/12/05 07:22:51;;;;;;;22.80;14.10;;;;;;;5.42;86.38;100107.44;5070408;28;20275;-75
2023/12/05 07:25:18;;;;;;;18.13;13.27;;;;;;;5.43;86.35;100099.38;5072688;28;20267;-75
2023/12/05 07:27:44;;;;;;;30.13;16.93;;;;;;;5.43;86.84;100104.66;5061283;28;20207;-73
2023/12/05 07:30:12;;;;;;;30.93;17.23;;;;;;;5.32;87.40;100102.22;5060476;28;20247;-76
2023/12/05 07:32:39;;;;;;;21.13;14.77;;;;;;;5.28;87.58;100095.59;5070538;28;20310;-73
2023/12/05 07:35:06;;;;;;;41.63;16.13;;;;;;;5.36;87.80;100103.59;5069938;28;20659;-74
2023/12/05 07:37:34;;;;;;;31.10;15.13;;;;;;;5.42;87.62;100105.66;5073551;28;20196;-74
2023/12/05 07:40:01;;;;;;;30.10;14.33;;;;;;;5.46;88.04;100099.09;5071692;28;20200;-76
2023/12/05 07:42:28;;;;;;;21.93;14.13;;;;;;;5.51;87.87;100096.84;5072006;28;20206;-73
2023/12/05 07:44:55;;;;;;;17.90;12.10;;;;;;;5.42;86.37;100095.09;5072927;28;20245;-73
2023/12/05 07:47:23;;;;;;;17.40;12.00;;;;;;;5.47;86.10;100100.75;5072533;28;20250;-73
2023/12/05 07:49:50;;;;;;;18.23;13.43;;;;;;;5.51;85.60;100096.00;5074688;28;20294;-75
2023/12/05 07:52:17;;;;;;;23.97;12.77;;;;;;;5.58;86.28;100092.63;5074486;28;20190;-75
2023/12/05 07:54:45;;;;;;;14.97;12.17;;;;;;;5.63;85.30;100077.19;5074406;28;20188;-76
2023/12/05 07:57:12;;;;;;;17.43;13.37;;;;;;;5.75;85.78;100073.38;5063550;28;20717;-76
2023/12/05 07:59:39;;;;;;;75.23;33.43;;;;;;;5.83;84.94;100066.56;5060500;28;20197;-76
2023/12/05 08:02:06;;;;;;;80.00;35.30;;;;;;;5.84;84.24;100068.19;5074939;28;20195;-76
2023/12/05 08:04:33;;;;;;;80.80;38.57;;;;;;;5.96;84.19;100062.50;5075413;28;20561;-75
2023/12/05 08:07:01;;;;;;;58.27;19.13;;;;;;;6.07;83.86;100067.56;5075235;28;20189;-74
2023/12/05 08:09:28;;;;;;;33.67;14.43;;;;;;;6.23;83.29;100066.84;5075082;28;20215;-75
2023/12/05 08:11:56;;;;;;;28.73;18.43;;;;;;;6.26;82.41;100071.81;5074826;28;20239;-76
2023/12/05 08:14:23;;;;;;;20.37;16.03;;;;;;;6.33;81.97;100070.22;5074865;28;20208;-75
2023/12/05 08:16:50;;;;;;;20.20;15.53;;;;;;;6.47;82.25;100069.63;5074308;28;20203;-76
2023/12/05 08:19:16;;;;;;;18.57;14.17;;;;;;;6.58;81.01;100069.38;5093895;28;20212;-76
2023/12/05 08:21:43;;;;;;;23.97;14.80;;;;;;;6.74;81.71;100064.19;5095156;28;20249;-76
2023/12/05 08:24:10;;;;;;;14.43;11.53;;;;;;;6.88;80.77;100066.22;5091669;28;20730;-76
2023/12/05 08:26:36;;;;;;;17.07;13.50;;;;;;;6.99;79.82;100060.66;5075040;28;20188;-77
2023/12/05 08:29:05;;;;;;;14.10;11.63;;;;;;;6.88;80.19;100058.31;5074366;28;20701;-75
2023/12/05 08:31:31;;;;;;;20.83;13.37;;;;;;;6.95;80.04;100059.34;5073925;28;20223;-76
2023/12/05 08:33:58;;;;;;;30.60;14.90;;;;;;;7.06;80.70;100059.06;5074047;28;20255;-75
2023/12/05 08:36:25;;;;;;;14.87;10.87;;;;;;;7.05;80.79;100054.72;5071228;28;20659;-76
2023/12/05 08:38:52;;;;;;;15.47;12.13;;;;;;;6.92;80.63;100065.75;5076686;28;20195;-77
2023/12/05 08:41:19;;;;;;;27.93;13.57;;;;;;;6.84;81.61;100056.97;5074714;28;20252;-76
2023/12/05 08:43:46;;;;;;;28.60;13.40;;;;;;;6.95;81.90;100048.75;5074330;28;20679;-74
2023/12/05 08:46:14;;;;;;;26.70;12.63;;;;;;;6.96;81.96;100045.97;5074236;28;20249;-76
2023/12/05 08:48:41;;;;;;;18.10;12.20;;;;;;;7.08;82.10;100049.13;5073808;28;20222;-77
2023/12/05 08:51:08;;;;;;;20.77;13.13;;;;;;;7.15;81.53;100040.41;5084317;28;20197;-76
2023/12/05 08:53:35;;;;;;;26.90;14.70;;;;;;;7.26;81.68;100041.94;5079144;28;20229;-76
2023/12/05 08:56:04;;;;;;;23.37;14.30;;;;;;;7.42;80.90;100039.31;5073710;28;20199;-75
2023/12/05 08:58:30;;;;;;;18.17;11.47;;;;;;;7.59;80.79;100039.19;5074310;28;20247;-75
2023/12/05 09:00:57;;;;;;;17.33;11.23;;;;;;;7.81;79.28;100037.72;5073749;28;20249;-75
2023/12/05 09:03:25;;;;;;;20.70;12.80;;;;;;;7.98;77.73;100037.56;5073772;28;20196;-76
2023/12/05 09:05:52;;;;;;;14.43;11.03;;;;;;;8.17;77.77;100039.81;5074196;28;20249;-76
2023/12/05 09:08:19;;;;;;;17.77;12.33;;;;;;;8.35;75.89;100037.03;5073366;28;20702;-76
2023/12/05 09:10:45;;;;;;;11.97;10.73;;;;;;;8.52;74.77;100028.03;5073229;28;20193;-75
2023/12/05 09:13:12;;;;;;;26.33;12.93;;;;;;;8.60;74.57;100022.72;5073072;28;20192;-74
2023/12/05 09:15:39;;;;;;;19.80;11.60;;;;;;;8.77;74.42;100021.66;5072839;28;20196;-75
2023/12/05 09:18:06;;;;;;;16.10;10.57;;;;;;;8.99;73.08;100021.75;5073338;28;20204;-76
2023/12/05 09:20:34;;;;;;;16.77;11.20;;;;;;;9.09;72.37;100010.94;5073883;28;20184;-76
2023/12/05 09:23:01;;;;;;;12.70;11.10;;;;;;;9.33;71.13;100026.69;5073527;28;20188;-77
2023/12/05 09:25:28;;;;;;;17.63;11.73;;;;;;;9.21;70.89;100014.84;5073690;28;20188;-77
2023/12/05 09:27:55;;;;;;;22.80;11.53;;;;;;;9.01;72.30;100013.63;5073460;28;20191;-76
2023/12/05 09:30:21;;;;;;;22.77;11.27;;;;;;;9.07;74.95;100002.34;5073491;28;20227;-73
2023/12/05 09:32:48;;;;;;;18.37;12.20;;;;;;;9.33;72.94;100008.13;5073349;28;20215;-75
2023/12/05 09:35:15;;;;;;;23.93;13.10;;;;;;;9.39;71.69;100007.47;5073794;28;20203;-74
2023/12/05 09:37:43;;;;;;;23.17;12.43;;;;;;;9.31;71.08;100010.97;5073115;28;20191;-74
2023/12/05 09:40:11;;;;;;;25.97;13.00;;;;;;;9.21;71.36;99994.47;5053304;28;20279;-73
2023/12/05 09:42:43;;;;;;;17.50;11.83;;;;;;;9.29;70.61;99990.94;5053240;28;20318;-76
2023/12/05 09:45:15;;;;;;;26.67;12.53;;;;;;;9.16;72.44;99982.75;5053036;28;20614;-75
2023/12/05 09:47:43;;;;;;;47.17;13.70;;;;;;;9.18;72.98;99970.97;5053079;28;20181;-74
2023/12/05 09:50:10;;;;;;;19.37;14.13;;;;;;;9.24;72.29;99966.78;5073059;28;20216;-74
2023/12/05 09:52:38;;;;;;;17.33;12.57;;;;;;;9.07;71.63;99966.06;5072681;28;20643;-74
2023/12/05 09:55:07;;;;;;;30.40;12.77;;;;;;;8.97;73.31;99959.31;5071419;28;20219;-73
2023/12/05 09:57:37;;;;;;;19.67;13.43;;;;;;;8.78;73.32;99952.63;5072886;28;20192;-74
2023/12/05 10:00:05;;;;;;;29.57;14.00;;;;;;;8.70;73.43;99949.22;5072624;28;20282;-74
2023/12/05 10:02:33;;;;;;;19.07;12.60;;;;;;;8.75;73.81;99937.13;5072450;28;20671;-75
2023/12/05 10:05:04;;;;;;;19.40;11.50;;;;;;;8.77;74.48;99921.88;5069982;28;20287;-73
2023/12/05 10:07:32;;;;;;;22.77;13.23;;;;;;;8.86;73.81;99925.31;5060766;28;20271;-74
2023/12/05 10:10:00;;;;;;;27.77;13.40;;;;;;;8.89;73.33;99924.94;5069525;28;20223;-73
2023/12/05 10:12:29;;;;;;;21.90;13.13;;;;;;;8.93;73.21;99915.63;5071480;28;20656;-70
2023/12/05 10:14:56;;;;;;;24.23;13.43;;;;;;;9.00;72.98;99911.28;5072101;28;20556;-72
2023/12/05 10:17:22;;;;;;;18.10;12.73;;;;;;;9.03;73.03;99901.16;5071225;28;20195;-71
2023/12/05 10:19:49;;;;;;;25.07;13.27;;;;;;;8.93;73.07;99902.38;5072408;28;20276;-71
2023/12/05 10:22:16;;;;;;;19.27;12.27;;;;;;;9.33;92.49;99871.13;5071190;28;20626;-68
2023/12/05 10:24:43;;;;;;;21.33;13.47;;;;;;;9.47;75.86;99888.06;5070052;28;20737;-70
2023/12/05 10:27:11;;;;;;;21.60;14.87;;;;;;;9.26;74.80;99899.34;5071168;28;20207;-78
2023/12/05 10:29:40;;;;;;;47.50;15.50;;;;;;;9.17;72.96;99895.13;5070456;28;20290;-70
2023/12/05 10:32:08;;;;;;;41.23;18.90;;;;;;;9.19;72.55;99887.00;5071888;28;20610;-71
2023/12/05 10:34:47;;;;;;;28.00;16.93;;;;;;;9.05;72.62;99883.28;5071421;28;20660;-70
2023/12/05 10:37:13;;;;;;;29.63;15.83;;;;;;;8.95;72.80;99881.88;5071611;28;20192;-70
2023/12/05 10:39:40;;;;;;;21.60;14.20;;;;;;;8.85;72.68;99871.50;5071937;28;20199;-70
2023/12/05 10:42:08;;;;;;;25.37;14.50;;;;;;;8.94;72.74;99882.88;5072211;28;20215;-71
2023/12/05 10:44:39;;;;;;;33.10;15.00;;;;;;;8.87;72.68;99871.31;5072088;28;20253;-70
2023/12/05 10:47:06;;;;;;;22.13;14.40;;;;;;;8.69;73.69;99849.56;5071571;28;20241;-70
2023/12/05 10:49:34;;;;;;;23.87;15.30;;;;;;;8.63;74.42;99856.41;5071517;28;20299;-69
2023/12/05 10:52:02;;;;;;;22.53;14.70;;;;;;;8.51;73.54;99856.97;5069475;28;20223;-69
2023/12/05 10:54:29;;;;;;;22.30;15.30;;;;;;;8.46;74.57;99851.38;5071793;28;20192;-68
2023/12/05 10:56:59;;;;;;;41.33;23.27;;;;;;;8.45;75.22;99845.25;5071784;28;20659;-68
2023/12/05 10:59:27;;;;;;;37.07;19.60;;;;;;;8.55;75.24;99837.09;5070424;28;20199;-71
2023/12/05 11:01:57;;;;;;;29.03;16.93;;;;;;;8.66;74.54;99839.34;5070726;28;20663;-72
2023/12/05 11:04:25;;;;;;;22.60;15.93;;;;;;;8.73;73.43;99845.56;5071529;28;20203;-70
2023/12/05 11:06:52;;;;;;;31.87;16.80;;;;;;;8.74;74.17;99832.16;5071055;28;20576;-71
2023/12/05 11:09:19;;;;;;;32.93;16.60;;;;;;;8.82;74.90;99833.94;5070086;28;20220;-70
2023/12/05 11:11:49;;;;;;;23.40;16.50;;;;;;;8.85;74.53;99830.91;5071172;28;20200;-74
2023/12/05 11:14:17;;;;;;;25.93;16.53;;;;;;;8.92;75.24;99829.22;5071223;28;20290;-70
2023/12/05 11:16:50;;;;;;;25.87;16.53;;;;;;;9.00;74.81;99818.56;5071048;28;20192;-71
2023/12/05 11:19:32;;;;;;;25.53;16.57;;;;;;;8.97;74.70;99817.09;5070530;28;20188;-71
2023/12/05 11:22:08;;;;;;;31.43;17.20;;;;;;;8.87;75.25;99823.63;5069922;28;20199;-71
2023/12/05 11:24:50;;;;;;;28.80;17.53;;;;;;;8.90;75.38;99821.44;5069824;28;20183;-72
2023/12/05 11:27:31;;;;;;;26.93;17.80;;;;;;;8.98;74.55;99820.56;5070368;28;20693;-71